Terminal Aerodrome Forecast
Issued by NWS

Home | Current Version | Previous Version | Text Only | Print | Product List | Glossary On
Versions: 1 2 3 4 5 6 7 8 9 10 11 12 13 14
246
FTUS45 KRIW 260520
TAFJAC
TAF
KJAC 260520Z 2606/2706 VRB06KT P6SM VCFG FEW005 SCT040
     FM261600 18006KT P6SM SCT050 SCT150
     FM270200 20005KT P6SM VCSH SCT040 BKN070
      AMD LTD TO CLD VIS AND WIND=

USA.gov is the U.S. government's official web portal to all federal, state and local government web resources and services.